NKS1883 KDFW-KDEN
Flight info
| Callsign | NKS1883 |
|---|---|
| Flight time | 1h 41m |
| Altitude | 34000 |
| Route | HUDAD2 HUDAD EZEEE ZIGEE NIIXX4 |
| Aircraft | A321/M-SDE3FGHIRWY/LB1 |
Departure
| Time | 2026-05-07 00:51 |
|---|---|
| Airport | Dallas Fort Worth International Airport (KDFW) |
Arrival
| Time | 2026-05-07 02:33 |
|---|---|
| Airport | Denver International Airport (KDEN) |
| Time | Latitude | Longitude | Altitude | Speed | Heading |
|---|---|---|---|---|---|
| 2026-05-07 00:22 | 32.89310 | -97.03716 | 584 ft | 0 kts | 204° |
| 2026-05-07 00:39 | 32.89324 | -97.03708 | 584 ft | 4 kts | 203° |
| 2026-05-07 00:39 | 32.89348 | -97.03696 | 585 ft | 4 kts | 193° |
| 2026-05-07 00:39 | 32.89372 | -97.03697 | 585 ft | 4 kts | 141° |
| 2026-05-07 00:39 | 32.89382 | -97.03715 | 585 ft | 1 kts | 94° |
| 2026-05-07 00:42 | 32.89381 | -97.03700 | 585 ft | 6 kts | 94° |
| 2026-05-07 00:42 | 32.89353 | -97.03629 | 585 ft | 12 kts | 129° |
| 2026-05-07 00:43 | 32.89292 | -97.03552 | 584 ft | 13 kts | 133° |
| 2026-05-07 00:43 | 32.89218 | -97.03485 | 584 ft | 12 kts | 152° |
| 2026-05-07 00:43 | 32.89176 | -97.03410 | 584 ft | 12 kts | 92° |
| 2026-05-07 00:43 | 32.89153 | -97.03322 | 583 ft | 12 kts | 160° |
| 2026-05-07 00:44 | 32.89061 | -97.03319 | 582 ft | 14 kts | 180° |
| 2026-05-07 00:44 | 32.88961 | -97.03320 | 582 ft | 15 kts | 180° |
| 2026-05-07 00:44 | 32.88853 | -97.03321 | 582 ft | 16 kts | 181° |
| 2026-05-07 00:44 | 32.88740 | -97.03322 | 583 ft | 17 kts | 180° |
| 2026-05-07 00:45 | 32.88632 | -97.03324 | 582 ft | 14 kts | 192° |
| 2026-05-07 00:45 | 32.88602 | -97.03421 | 583 ft | 13 kts | 269° |
| 2026-05-07 00:45 | 32.88602 | -97.03534 | 584 ft | 14 kts | 270° |
| 2026-05-07 00:45 | 32.88603 | -97.03652 | 585 ft | 14 kts | 270° |
| 2026-05-07 00:46 | 32.88603 | -97.03793 | 592 ft | 17 kts | 271° |
| 2026-05-07 00:46 | 32.88604 | -97.03903 | 601 ft | 12 kts | 270° |
| 2026-05-07 00:46 | 32.88604 | -97.04006 | 601 ft | 13 kts | 270° |
| 2026-05-07 00:46 | 32.88603 | -97.04117 | 601 ft | 14 kts | 270° |
| 2026-05-07 00:47 | 32.88603 | -97.04236 | 600 ft | 15 kts | 270° |
| 2026-05-07 00:47 | 32.88605 | -97.04375 | 596 ft | 19 kts | 271° |
| 2026-05-07 00:47 | 32.88607 | -97.04550 | 591 ft | 22 kts | 270° |
| 2026-05-07 00:47 | 32.88607 | -97.04726 | 587 ft | 17 kts | 264° |
| 2026-05-07 00:48 | 32.88519 | -97.04772 | 587 ft | 12 kts | 192° |
| 2026-05-07 00:48 | 32.88445 | -97.04806 | 589 ft | 11 kts | 182° |
| 2026-05-07 00:48 | 32.88365 | -97.04806 | 589 ft | 12 kts | 181° |
| 2026-05-07 00:48 | 32.88278 | -97.04807 | 588 ft | 14 kts | 179° |
| 2026-05-07 00:49 | 32.88175 | -97.04807 | 587 ft | 16 kts | 180° |
| 2026-05-07 00:49 | 32.88062 | -97.04808 | 587 ft | 17 kts | 180° |
| 2026-05-07 00:49 | 32.87950 | -97.04810 | 587 ft | 15 kts | 183° |
| 2026-05-07 00:49 | 32.87911 | -97.04895 | 586 ft | 11 kts | 271° |
| 2026-05-07 00:50 | 32.87912 | -97.04975 | 585 ft | 10 kts | 270° |
| 2026-05-07 00:50 | 32.87913 | -97.05057 | 587 ft | 10 kts | 283° |
| 2026-05-07 00:50 | 32.87961 | -97.05091 | 588 ft | 8 kts | 359° |
| 2026-05-07 00:50 | 32.88109 | -97.05090 | 591 ft | 50 kts | 0° |
| 2026-05-07 00:51 | 32.88705 | -97.05088 | 587 ft | 117 kts | 0° |
| 2026-05-07 00:51 | 32.89693 | -97.05084 | 604 ft | 165 kts | 0° |
| 2026-05-07 00:51 | 32.90874 | -97.05079 | 1059 ft | 171 kts | 0° |
| 2026-05-07 00:51 | 32.92094 | -97.05124 | 1672 ft | 177 kts | 360° |
| 2026-05-07 00:52 | 32.93346 | -97.05163 | 2157 ft | 187 kts | 0° |
| 2026-05-07 00:52 | 32.94725 | -97.05196 | 2369 ft | 209 kts | 0° |
| 2026-05-07 00:52 | 32.96271 | -97.05224 | 2566 ft | 234 kts | 0° |
| 2026-05-07 00:52 | 32.97919 | -97.05246 | 3270 ft | 239 kts | 0° |
| 2026-05-07 00:53 | 32.99589 | -97.05268 | 4008 ft | 242 kts | 359° |
| 2026-05-07 00:53 | 33.01288 | -97.05289 | 4725 ft | 247 kts | 359° |
| 2026-05-07 00:53 | 33.03021 | -97.05308 | 5386 ft | 251 kts | 358° |
| 2026-05-07 00:53 | 33.04783 | -97.05421 | 6017 ft | 256 kts | 344° |
| 2026-05-07 00:54 | 33.06375 | -97.06328 | 6623 ft | 256 kts | 316° |
| 2026-05-07 00:54 | 33.07448 | -97.07993 | 7101 ft | 262 kts | 290° |
| 2026-05-07 00:54 | 33.07892 | -97.10134 | 7739 ft | 265 kts | 279° |
| 2026-05-07 00:54 | 33.08232 | -97.12270 | 8453 ft | 266 kts | 278° |
| 2026-05-07 00:55 | 33.08358 | -97.14489 | 9187 ft | 265 kts | 264° |
| 2026-05-07 00:55 | 33.08056 | -97.16654 | 9943 ft | 265 kts | 258° |
| 2026-05-07 00:55 | 33.07709 | -97.18808 | 10376 ft | 277 kts | 258° |
| 2026-05-07 00:55 | 33.07331 | -97.21156 | 10503 ft | 299 kts | 258° |
| 2026-05-07 00:56 | 33.06929 | -97.23673 | 10649 ft | 319 kts | 258° |
| 2026-05-07 00:56 | 33.06513 | -97.26307 | 11109 ft | 326 kts | 258° |
| 2026-05-07 00:56 | 33.06095 | -97.28974 | 11734 ft | 329 kts | 258° |
| 2026-05-07 00:56 | 33.05675 | -97.31657 | 12407 ft | 330 kts | 258° |
| 2026-05-07 00:57 | 33.05250 | -97.34349 | 13098 ft | 331 kts | 258° |
| 2026-05-07 00:57 | 33.04821 | -97.37050 | 13787 ft | 333 kts | 258° |
| 2026-05-07 00:57 | 33.04389 | -97.39762 | 14395 ft | 334 kts | 258° |
| 2026-05-07 00:57 | 33.03953 | -97.42481 | 15018 ft | 334 kts | 258° |
| 2026-05-07 00:58 | 33.03515 | -97.45209 | 15631 ft | 336 kts | 258° |
| 2026-05-07 00:58 | 33.03078 | -97.47945 | 16251 ft | 337 kts | 258° |
| 2026-05-07 00:58 | 33.02642 | -97.50687 | 16823 ft | 338 kts | 258° |
| 2026-05-07 00:58 | 33.02201 | -97.53446 | 17424 ft | 339 kts | 258° |
| 2026-05-07 00:59 | 33.01312 | -97.58980 | 18553 ft | 341 kts | 258° |
| 2026-05-07 00:59 | 33.00862 | -97.61761 | 19049 ft | 342 kts | 258° |
| 2026-05-07 00:59 | 33.00410 | -97.64553 | 19558 ft | 343 kts | 258° |
| 2026-05-07 01:00 | 32.99957 | -97.67346 | 20069 ft | 344 kts | 258° |
| 2026-05-07 01:00 | 32.99525 | -97.70159 | 20569 ft | 346 kts | 261° |
| 2026-05-07 01:00 | 32.99492 | -97.73036 | 21036 ft | 351 kts | 272° |
| 2026-05-07 01:00 | 33.00016 | -97.75907 | 21504 ft | 360 kts | 283° |
| 2026-05-07 01:01 | 33.01001 | -97.78681 | 21961 ft | 365 kts | 287° |
| 2026-05-07 01:01 | 33.02043 | -97.81450 | 22402 ft | 367 kts | 287° |
| 2026-05-07 01:01 | 33.03088 | -97.84230 | 22842 ft | 369 kts | 287° |
| 2026-05-07 01:01 | 33.04139 | -97.87023 | 23289 ft | 370 kts | 287° |
| 2026-05-07 01:02 | 33.05196 | -97.89833 | 23771 ft | 372 kts | 286° |
| 2026-05-07 01:02 | 33.06253 | -97.92652 | 24121 ft | 374 kts | 286° |
| 2026-05-07 01:02 | 33.07313 | -97.95486 | 24456 ft | 375 kts | 286° |
| 2026-05-07 01:02 | 33.08376 | -97.98333 | 24793 ft | 377 kts | 285° |
| 2026-05-07 01:03 | 33.09443 | -98.01190 | 25127 ft | 378 kts | 285° |
| 2026-05-07 01:03 | 33.10512 | -98.04061 | 25462 ft | 379 kts | 285° |
| 2026-05-07 01:03 | 33.11584 | -98.06943 | 25800 ft | 381 kts | 285° |
| 2026-05-07 01:03 | 33.12657 | -98.09837 | 26113 ft | 382 kts | 285° |
| 2026-05-07 01:04 | 33.13733 | -98.12742 | 26443 ft | 384 kts | 285° |
| 2026-05-07 01:04 | 33.14814 | -98.15655 | 26756 ft | 385 kts | 285° |
| 2026-05-07 01:04 | 33.15899 | -98.18582 | 27070 ft | 386 kts | 285° |
| 2026-05-07 01:04 | 33.16989 | -98.21522 | 27363 ft | 388 kts | 285° |
| 2026-05-07 01:05 | 33.18083 | -98.24470 | 27671 ft | 389 kts | 284° |
| 2026-05-07 01:05 | 33.19180 | -98.27427 | 27965 ft | 391 kts | 284° |
| 2026-05-07 01:05 | 33.20284 | -98.30400 | 28269 ft | 392 kts | 284° |
| 2026-05-07 01:05 | 33.21393 | -98.33383 | 28565 ft | 394 kts | 284° |
| 2026-05-07 01:06 | 33.22505 | -98.36376 | 28890 ft | 395 kts | 284° |
| 2026-05-07 01:06 | 33.23619 | -98.39378 | 29225 ft | 396 kts | 284° |
| 2026-05-07 01:06 | 33.24733 | -98.42384 | 29554 ft | 396 kts | 284° |
| 2026-05-07 01:06 | 33.25843 | -98.45379 | 29997 ft | 394 kts | 284° |
| 2026-05-07 01:07 | 33.26949 | -98.48364 | 30372 ft | 392 kts | 284° |
| 2026-05-07 01:07 | 33.28047 | -98.51336 | 30713 ft | 390 kts | 283° |
| 2026-05-07 01:07 | 33.29138 | -98.54298 | 31051 ft | 389 kts | 283° |
| 2026-05-07 01:07 | 33.30221 | -98.57247 | 31379 ft | 387 kts | 283° |
| 2026-05-07 01:08 | 33.31302 | -98.60194 | 31709 ft | 386 kts | 283° |
| 2026-05-07 01:08 | 33.32379 | -98.63125 | 32039 ft | 385 kts | 283° |
| 2026-05-07 01:08 | 33.33457 | -98.66050 | 32367 ft | 384 kts | 283° |
| 2026-05-07 01:08 | 33.34529 | -98.68965 | 32685 ft | 382 kts | 282° |
| 2026-05-07 01:09 | 33.35594 | -98.71872 | 33000 ft | 381 kts | 282° |
| 2026-05-07 01:09 | 33.36655 | -98.74777 | 33299 ft | 381 kts | 282° |
| 2026-05-07 01:09 | 33.37715 | -98.77676 | 33644 ft | 380 kts | 282° |
| 2026-05-07 01:09 | 33.38772 | -98.80565 | 33961 ft | 379 kts | 282° |
| 2026-05-07 01:10 | 33.39824 | -98.83434 | 34023 ft | 375 kts | 282° |
| 2026-05-07 01:10 | 33.41906 | -98.89112 | 34029 ft | 371 kts | 282° |
| 2026-05-07 01:11 | 33.43948 | -98.94737 | 34029 ft | 371 kts | 282° |
| 2026-05-07 01:11 | 33.46008 | -99.00437 | 34029 ft | 371 kts | 282° |
| 2026-05-07 01:12 | 33.48065 | -99.06104 | 34026 ft | 371 kts | 282° |
| 2026-05-07 01:12 | 33.50109 | -99.11730 | 34010 ft | 371 kts | 282° |
| 2026-05-07 01:13 | 33.52159 | -99.17401 | 34006 ft | 371 kts | 282° |
| 2026-05-07 01:13 | 33.54212 | -99.23087 | 34007 ft | 372 kts | 282° |
| 2026-05-07 01:14 | 33.56265 | -99.28778 | 34001 ft | 372 kts | 282° |
| 2026-05-07 01:14 | 33.58313 | -99.34469 | 34003 ft | 372 kts | 282° |
| 2026-05-07 01:15 | 33.60386 | -99.40166 | 34056 ft | 377 kts | 285° |
| 2026-05-07 01:15 | 33.61825 | -99.42863 | 34049 ft | 394 kts | 295° |
| 2026-05-07 01:15 | 33.63805 | -99.45253 | 34044 ft | 416 kts | 307° |
| 2026-05-07 01:16 | 33.68557 | -99.49370 | 34030 ft | 422 kts | 309° |
| 2026-05-07 01:16 | 33.73335 | -99.53463 | 34024 ft | 422 kts | 309° |
| 2026-05-07 01:17 | 33.78105 | -99.57575 | 34030 ft | 422 kts | 309° |
| 2026-05-07 01:17 | 33.82862 | -99.61700 | 34026 ft | 422 kts | 309° |
| 2026-05-07 01:18 | 33.87616 | -99.65827 | 34041 ft | 420 kts | 309° |
| 2026-05-07 01:18 | 33.92359 | -99.69942 | 34041 ft | 420 kts | 309° |
| 2026-05-07 01:19 | 33.97103 | -99.74051 | 34033 ft | 420 kts | 309° |
| 2026-05-07 01:19 | 34.01834 | -99.78170 | 34030 ft | 420 kts | 309° |
| 2026-05-07 01:20 | 34.06567 | -99.82289 | 34031 ft | 420 kts | 309° |
| 2026-05-07 01:20 | 34.11309 | -99.86414 | 34055 ft | 420 kts | 309° |
| 2026-05-07 01:21 | 34.15243 | -99.89856 | 34042 ft | 421 kts | 309° |
| 2026-05-07 01:21 | 34.19986 | -99.94007 | 34032 ft | 421 kts | 309° |
| 2026-05-07 01:22 | 34.24733 | -99.98168 | 34038 ft | 422 kts | 309° |
| 2026-05-07 01:22 | 34.29483 | -100.02334 | 34048 ft | 422 kts | 309° |
| 2026-05-07 01:23 | 34.34233 | -100.06505 | 34064 ft | 421 kts | 308° |
| 2026-05-07 01:23 | 34.38941 | -100.10643 | 34053 ft | 417 kts | 308° |
| 2026-05-07 01:24 | 34.43632 | -100.14786 | 34056 ft | 418 kts | 308° |
| 2026-05-07 01:24 | 34.48336 | -100.18935 | 34034 ft | 419 kts | 308° |
| 2026-05-07 01:25 | 34.53053 | -100.23093 | 34011 ft | 419 kts | 309° |
| 2026-05-07 01:25 | 34.57770 | -100.27260 | 34076 ft | 420 kts | 308° |
| 2026-05-07 01:26 | 34.62478 | -100.31441 | 34069 ft | 419 kts | 308° |
| 2026-05-07 01:26 | 34.67189 | -100.35625 | 34062 ft | 420 kts | 308° |
| 2026-05-07 01:27 | 34.71909 | -100.39802 | 34066 ft | 420 kts | 308° |
| 2026-05-07 01:27 | 34.76626 | -100.43993 | 34060 ft | 420 kts | 308° |
| 2026-05-07 01:28 | 34.81339 | -100.48191 | 34101 ft | 420 kts | 308° |
| 2026-05-07 01:28 | 34.86041 | -100.52386 | 34099 ft | 419 kts | 308° |
| 2026-05-07 01:29 | 34.90735 | -100.56581 | 34094 ft | 418 kts | 308° |
| 2026-05-07 01:29 | 34.95421 | -100.60768 | 34089 ft | 418 kts | 309° |
| 2026-05-07 01:30 | 35.00090 | -100.64972 | 34086 ft | 417 kts | 308° |
| 2026-05-07 01:30 | 35.04763 | -100.69164 | 34093 ft | 415 kts | 309° |
| 2026-05-07 01:31 | 35.09389 | -100.73301 | 34082 ft | 411 kts | 309° |
| 2026-05-07 01:31 | 35.13986 | -100.77431 | 34082 ft | 410 kts | 308° |
| 2026-05-07 01:32 | 35.18534 | -100.81560 | 34088 ft | 410 kts | 308° |
| 2026-05-07 01:32 | 35.23119 | -100.85717 | 34089 ft | 410 kts | 308° |
| 2026-05-07 01:33 | 35.27716 | -100.89863 | 34128 ft | 410 kts | 308° |
| 2026-05-07 01:33 | 35.32261 | -100.93965 | 34107 ft | 404 kts | 308° |
| 2026-05-07 01:34 | 35.36783 | -100.98070 | 34117 ft | 404 kts | 308° |
| 2026-05-07 01:34 | 35.41300 | -101.02183 | 34124 ft | 405 kts | 308° |
| 2026-05-07 01:35 | 35.45834 | -101.06296 | 34137 ft | 405 kts | 308° |
| 2026-05-07 01:35 | 35.50361 | -101.10426 | 34143 ft | 406 kts | 308° |
| 2026-05-07 01:36 | 35.54896 | -101.14553 | 34146 ft | 406 kts | 308° |
| 2026-05-07 01:36 | 35.59432 | -101.18685 | 34148 ft | 406 kts | 308° |
| 2026-05-07 01:37 | 35.63959 | -101.22825 | 34147 ft | 406 kts | 308° |
| 2026-05-07 01:37 | 35.68484 | -101.26976 | 34146 ft | 406 kts | 308° |
| 2026-05-07 01:38 | 35.73012 | -101.31128 | 34174 ft | 405 kts | 308° |
| 2026-05-07 01:38 | 35.77485 | -101.35216 | 34133 ft | 398 kts | 307° |
| 2026-05-07 01:39 | 35.81898 | -101.39256 | 34127 ft | 401 kts | 309° |
| 2026-05-07 01:39 | 35.86598 | -101.43081 | 34131 ft | 408 kts | 311° |
| 2026-05-07 01:40 | 35.91419 | -101.46802 | 34136 ft | 409 kts | 312° |
| 2026-05-07 01:40 | 35.96221 | -101.50552 | 34177 ft | 408 kts | 312° |
| 2026-05-07 01:41 | 36.00975 | -101.54337 | 34152 ft | 406 kts | 311° |
| 2026-05-07 01:41 | 36.05715 | -101.58151 | 34146 ft | 407 kts | 311° |
| 2026-05-07 01:42 | 36.10469 | -101.61966 | 34154 ft | 408 kts | 312° |
| 2026-05-07 01:42 | 36.15244 | -101.65776 | 34156 ft | 408 kts | 311° |
| 2026-05-07 01:43 | 36.20009 | -101.69616 | 34170 ft | 410 kts | 314° |
| 2026-05-07 01:43 | 36.24785 | -101.73497 | 34157 ft | 411 kts | 314° |
| 2026-05-07 01:44 | 36.29591 | -101.77372 | 34155 ft | 413 kts | 314° |
| 2026-05-07 01:44 | 36.34417 | -101.81248 | 34156 ft | 414 kts | 314° |
| 2026-05-07 01:45 | 36.39247 | -101.85138 | 34162 ft | 414 kts | 314° |
| 2026-05-07 01:45 | 36.44074 | -101.89057 | 34178 ft | 415 kts | 316° |
| 2026-05-07 01:46 | 36.48919 | -101.92991 | 34162 ft | 417 kts | 316° |
| 2026-05-07 01:46 | 36.53781 | -101.96948 | 34163 ft | 418 kts | 316° |
| 2026-05-07 01:47 | 36.58662 | -102.00910 | 34163 ft | 419 kts | 316° |
| 2026-05-07 01:47 | 36.63544 | -102.04887 | 34200 ft | 420 kts | 317° |
| 2026-05-07 01:48 | 36.68443 | -102.08882 | 34169 ft | 421 kts | 318° |
| 2026-05-07 01:48 | 36.73350 | -102.12902 | 34173 ft | 422 kts | 318° |
| 2026-05-07 01:49 | 36.78270 | -102.16924 | 34191 ft | 423 kts | 318° |
| 2026-05-07 01:49 | 36.83193 | -102.20964 | 34188 ft | 424 kts | 318° |
| 2026-05-07 01:50 | 36.88120 | -102.25025 | 34193 ft | 425 kts | 319° |
| 2026-05-07 01:50 | 36.93061 | -102.29101 | 34189 ft | 426 kts | 319° |
| 2026-05-07 01:51 | 36.98023 | -102.33187 | 34191 ft | 427 kts | 319° |
| 2026-05-07 01:51 | 37.02987 | -102.37271 | 34189 ft | 427 kts | 319° |
| 2026-05-07 01:52 | 37.07950 | -102.41367 | 34206 ft | 427 kts | 320° |
| 2026-05-07 01:52 | 37.12910 | -102.45473 | 34196 ft | 428 kts | 320° |
| 2026-05-07 01:53 | 37.17874 | -102.49593 | 34201 ft | 428 kts | 320° |
| 2026-05-07 01:53 | 37.22840 | -102.53717 | 34201 ft | 428 kts | 320° |
| 2026-05-07 01:54 | 37.27801 | -102.57851 | 34207 ft | 428 kts | 320° |
| 2026-05-07 01:54 | 37.32764 | -102.61983 | 34240 ft | 428 kts | 321° |
| 2026-05-07 01:55 | 37.37719 | -102.66122 | 34234 ft | 428 kts | 321° |
| 2026-05-07 01:55 | 37.42672 | -102.70262 | 34232 ft | 427 kts | 321° |
| 2026-05-07 01:56 | 37.47622 | -102.74407 | 34226 ft | 427 kts | 321° |
| 2026-05-07 01:56 | 37.52627 | -102.78360 | 34227 ft | 431 kts | 330° |
| 2026-05-07 01:57 | 37.58198 | -102.81361 | 34228 ft | 432 kts | 333° |
| 2026-05-07 01:57 | 37.63696 | -102.84307 | 34232 ft | 432 kts | 333° |
| 2026-05-07 01:58 | 37.69264 | -102.87303 | 34222 ft | 432 kts | 333° |
| 2026-05-07 01:58 | 37.74761 | -102.90259 | 34225 ft | 432 kts | 333° |
| 2026-05-07 01:59 | 37.80332 | -102.93254 | 34228 ft | 432 kts | 333° |
| 2026-05-07 01:59 | 37.85860 | -102.96234 | 34232 ft | 432 kts | 333° |
| 2026-05-07 02:00 | 37.91358 | -102.99203 | 34232 ft | 432 kts | 333° |
| 2026-05-07 02:00 | 37.96919 | -103.02208 | 34247 ft | 431 kts | 334° |
| 2026-05-07 02:01 | 38.02395 | -103.05177 | 34237 ft | 430 kts | 334° |
| 2026-05-07 02:01 | 38.07898 | -103.08157 | 34234 ft | 430 kts | 334° |
| 2026-05-07 02:02 | 38.13386 | -103.11141 | 34226 ft | 429 kts | 333° |
| 2026-05-07 02:02 | 38.18864 | -103.14132 | 34225 ft | 428 kts | 335° |
| 2026-05-07 02:03 | 38.24320 | -103.17117 | 34234 ft | 426 kts | 335° |
| 2026-05-07 02:03 | 38.29753 | -103.20082 | 34231 ft | 424 kts | 335° |
| 2026-05-07 02:04 | 38.35167 | -103.23034 | 34230 ft | 423 kts | 335° |
| 2026-05-07 02:04 | 38.40566 | -103.25985 | 34235 ft | 421 kts | 336° |
| 2026-05-07 02:05 | 38.45931 | -103.28953 | 34228 ft | 419 kts | 336° |
| 2026-05-07 02:05 | 38.51270 | -103.31921 | 34225 ft | 418 kts | 336° |
| 2026-05-07 02:06 | 38.56596 | -103.34875 | 34217 ft | 417 kts | 336° |
| 2026-05-07 02:06 | 38.61018 | -103.37329 | 34221 ft | 416 kts | 338° |
| 2026-05-07 02:07 | 38.66316 | -103.40278 | 34216 ft | 415 kts | 337° |
| 2026-05-07 02:07 | 38.74249 | -103.44702 | 34190 ft | 415 kts | 338° |
| 2026-05-07 02:08 | 38.79521 | -103.47759 | 33336 ft | 421 kts | 332° |
| 2026-05-07 02:08 | 38.81966 | -103.49911 | 32231 ft | 433 kts | 323° |
| 2026-05-07 02:08 | 38.84122 | -103.52657 | 31408 ft | 439 kts | 316° |
| 2026-05-07 02:09 | 38.86157 | -103.55580 | 30638 ft | 439 kts | 316° |
| 2026-05-07 02:09 | 38.88207 | -103.58488 | 29778 ft | 441 kts | 317° |
| 2026-05-07 02:09 | 38.90278 | -103.61404 | 28793 ft | 443 kts | 317° |
| 2026-05-07 02:09 | 38.92360 | -103.64332 | 27784 ft | 446 kts | 316° |
| 2026-05-07 02:10 | 38.94455 | -103.67288 | 27098 ft | 449 kts | 316° |
| 2026-05-07 02:10 | 38.96548 | -103.70255 | 26479 ft | 447 kts | 316° |
| 2026-05-07 02:10 | 38.98627 | -103.73212 | 25851 ft | 444 kts | 316° |
| 2026-05-07 02:10 | 39.00689 | -103.76150 | 25234 ft | 440 kts | 316° |
| 2026-05-07 02:11 | 39.02725 | -103.79057 | 24626 ft | 435 kts | 316° |
| 2026-05-07 02:11 | 39.04741 | -103.81939 | 24048 ft | 431 kts | 316° |
| 2026-05-07 02:11 | 39.06752 | -103.84813 | 23425 ft | 438 kts | 316° |
| 2026-05-07 02:11 | 39.08807 | -103.87745 | 22684 ft | 442 kts | 316° |
| 2026-05-07 02:12 | 39.10862 | -103.90681 | 22150 ft | 440 kts | 316° |
| 2026-05-07 02:12 | 39.12897 | -103.93594 | 21936 ft | 437 kts | 315° |
| 2026-05-07 02:12 | 39.14923 | -103.96510 | 21556 ft | 435 kts | 315° |
| 2026-05-07 02:12 | 39.16926 | -103.99416 | 21153 ft | 432 kts | 315° |
| 2026-05-07 02:13 | 39.18910 | -104.02310 | 20754 ft | 429 kts | 315° |
| 2026-05-07 02:13 | 39.20875 | -104.05182 | 20344 ft | 425 kts | 315° |
| 2026-05-07 02:13 | 39.22825 | -104.08034 | 19957 ft | 422 kts | 315° |
| 2026-05-07 02:13 | 39.24758 | -104.10860 | 19563 ft | 419 kts | 315° |
| 2026-05-07 02:14 | 39.26681 | -104.13669 | 19383 ft | 417 kts | 315° |
| 2026-05-07 02:14 | 39.28602 | -104.16471 | 19207 ft | 416 kts | 315° |
| 2026-05-07 02:14 | 39.30666 | -104.19045 | 19018 ft | 410 kts | 327° |
| 2026-05-07 02:14 | 39.33074 | -104.20968 | 18726 ft | 406 kts | 332° |
| 2026-05-07 02:15 | 39.35513 | -104.22803 | 18420 ft | 405 kts | 332° |
| 2026-05-07 02:15 | 39.37932 | -104.24603 | 18116 ft | 390 kts | 332° |
| 2026-05-07 02:15 | 39.40176 | -104.26275 | 17815 ft | 355 kts | 332° |
| 2026-05-07 02:15 | 39.42225 | -104.27806 | 17516 ft | 326 kts | 332° |
| 2026-05-07 02:16 | 39.44106 | -104.29215 | 17237 ft | 300 kts | 332° |
| 2026-05-07 02:16 | 39.45871 | -104.30535 | 17029 ft | 291 kts | 332° |
| 2026-05-07 02:16 | 39.47621 | -104.31837 | 16772 ft | 288 kts | 333° |
| 2026-05-07 02:16 | 39.49382 | -104.33042 | 16515 ft | 286 kts | 334° |
| 2026-05-07 02:17 | 39.51065 | -104.34121 | 16270 ft | 284 kts | 335° |
| 2026-05-07 02:17 | 39.52855 | -104.35240 | 16015 ft | 283 kts | 335° |
| 2026-05-07 02:17 | 39.54628 | -104.36342 | 15767 ft | 283 kts | 335° |
| 2026-05-07 02:17 | 39.56397 | -104.37449 | 15520 ft | 282 kts | 334° |
| 2026-05-07 02:18 | 39.58157 | -104.38559 | 15273 ft | 281 kts | 334° |
| 2026-05-07 02:18 | 39.59903 | -104.39670 | 15102 ft | 279 kts | 334° |
| 2026-05-07 02:18 | 39.61639 | -104.40784 | 15036 ft | 278 kts | 333° |
| 2026-05-07 02:18 | 39.63375 | -104.41903 | 15044 ft | 279 kts | 333° |
| 2026-05-07 02:19 | 39.65112 | -104.43023 | 15048 ft | 279 kts | 333° |
| 2026-05-07 02:19 | 39.66847 | -104.44144 | 15044 ft | 279 kts | 333° |
| 2026-05-07 02:19 | 39.68581 | -104.45262 | 15047 ft | 279 kts | 333° |
| 2026-05-07 02:19 | 39.70318 | -104.46380 | 15048 ft | 278 kts | 333° |
| 2026-05-07 02:20 | 39.72052 | -104.47499 | 15044 ft | 278 kts | 333° |
| 2026-05-07 02:20 | 39.73834 | -104.48490 | 14971 ft | 280 kts | 342° |
| 2026-05-07 02:20 | 39.75703 | -104.49168 | 14453 ft | 284 kts | 343° |
| 2026-05-07 02:20 | 39.77622 | -104.49830 | 14143 ft | 280 kts | 343° |
| 2026-05-07 02:21 | 39.79475 | -104.50464 | 13740 ft | 279 kts | 343° |
| 2026-05-07 02:21 | 39.81341 | -104.51104 | 13226 ft | 275 kts | 343° |
| 2026-05-07 02:21 | 39.83182 | -104.51737 | 12366 ft | 274 kts | 343° |
| 2026-05-07 02:21 | 39.85036 | -104.52255 | 11634 ft | 271 kts | 352° |
| 2026-05-07 02:22 | 39.86935 | -104.52288 | 11353 ft | 269 kts | 357° |
| 2026-05-07 02:22 | 39.88765 | -104.52255 | 11301 ft | 257 kts | 357° |
| 2026-05-07 02:22 | 39.90512 | -104.52232 | 11207 ft | 245 kts | 356° |
| 2026-05-07 02:22 | 39.92180 | -104.52214 | 11075 ft | 236 kts | 356° |
| 2026-05-07 02:23 | 39.93784 | -104.52198 | 11012 ft | 223 kts | 356° |
| 2026-05-07 02:23 | 39.95355 | -104.52180 | 11020 ft | 227 kts | 356° |
| 2026-05-07 02:23 | 39.96939 | -104.52165 | 11017 ft | 228 kts | 356° |
| 2026-05-07 02:23 | 39.98528 | -104.52150 | 11019 ft | 229 kts | 356° |
| 2026-05-07 02:24 | 40.00121 | -104.52135 | 11021 ft | 228 kts | 356° |
| 2026-05-07 02:24 | 40.01706 | -104.52115 | 11021 ft | 228 kts | 356° |
| 2026-05-07 02:24 | 40.03288 | -104.52093 | 10978 ft | 224 kts | 356° |
| 2026-05-07 02:24 | 40.04830 | -104.52068 | 10416 ft | 222 kts | 356° |
| 2026-05-07 02:25 | 40.06380 | -104.52049 | 9763 ft | 224 kts | 356° |
| 2026-05-07 02:25 | 40.07937 | -104.52040 | 9174 ft | 224 kts | 356° |
| 2026-05-07 02:25 | 40.09511 | -104.52049 | 9044 ft | 228 kts | 356° |
| 2026-05-07 02:25 | 40.11110 | -104.52068 | 9049 ft | 230 kts | 355° |
| 2026-05-07 02:26 | 40.12627 | -104.52583 | 9048 ft | 226 kts | 327° |
| 2026-05-07 02:26 | 40.13664 | -104.54073 | 9050 ft | 224 kts | 296° |
| 2026-05-07 02:26 | 40.13924 | -104.56075 | 9050 ft | 227 kts | 270° |
| 2026-05-07 02:26 | 40.13824 | -104.58129 | 9049 ft | 227 kts | 267° |
| 2026-05-07 02:27 | 40.13617 | -104.60173 | 9046 ft | 229 kts | 256° |
| 2026-05-07 02:27 | 40.12727 | -104.61910 | 9048 ft | 237 kts | 224° |
| 2026-05-07 02:27 | 40.11280 | -104.62982 | 9057 ft | 241 kts | 208° |
| 2026-05-07 02:27 | 40.09743 | -104.63874 | 9054 ft | 241 kts | 207° |
| 2026-05-07 02:28 | 40.08207 | -104.64747 | 9043 ft | 241 kts | 207° |
| 2026-05-07 02:28 | 40.06654 | -104.65577 | 9056 ft | 242 kts | 203° |
| 2026-05-07 02:28 | 40.04996 | -104.65947 | 9172 ft | 250 kts | 183° |
| 2026-05-07 02:28 | 40.03232 | -104.65851 | 9039 ft | 250 kts | 181° |
| 2026-05-07 02:29 | 40.01564 | -104.65786 | 8811 ft | 235 kts | 182° |
| 2026-05-07 02:29 | 39.99980 | -104.65781 | 8540 ft | 221 kts | 183° |
| 2026-05-07 02:29 | 39.98476 | -104.65810 | 8250 ft | 211 kts | 184° |
| 2026-05-07 02:29 | 39.97038 | -104.65832 | 7963 ft | 203 kts | 183° |
| 2026-05-07 02:30 | 39.95671 | -104.65837 | 7665 ft | 189 kts | 184° |
| 2026-05-07 02:30 | 39.94438 | -104.65876 | 7420 ft | 167 kts | 185° |
| 2026-05-07 02:30 | 39.93321 | -104.65889 | 7094 ft | 156 kts | 182° |
| 2026-05-07 02:30 | 39.92265 | -104.65893 | 6771 ft | 149 kts | 182° |
| 2026-05-07 02:31 | 39.91236 | -104.65928 | 6540 ft | 147 kts | 185° |
| 2026-05-07 02:31 | 39.90216 | -104.65950 | 6260 ft | 147 kts | 182° |
| 2026-05-07 02:31 | 39.89200 | -104.65964 | 6048 ft | 146 kts | 181° |
| 2026-05-07 02:31 | 39.88187 | -104.65986 | 5827 ft | 145 kts | 181° |
| 2026-05-07 02:32 | 39.87181 | -104.65995 | 5639 ft | 144 kts | 180° |
| 2026-05-07 02:32 | 39.86179 | -104.66010 | 5455 ft | 144 kts | 181° |
| 2026-05-07 02:32 | 39.85234 | -104.66028 | 5402 ft | 119 kts | 181° |
| 2026-05-07 02:32 | 39.84581 | -104.66035 | 5413 ft | 69 kts | 180° |
| 2026-05-07 02:33 | 39.84269 | -104.66037 | 5416 ft | 24 kts | 181° |
| 2026-05-07 02:33 | 39.84150 | -104.66093 | 5415 ft | 14 kts | 210° |
| 2026-05-07 02:33 | 39.84066 | -104.66157 | 5420 ft | 13 kts | 212° |
| 2026-05-07 02:33 | 39.84054 | -104.66239 | 5405 ft | 11 kts | 312° |
| 2026-05-07 02:34 | 39.84146 | -104.66253 | 5415 ft | 16 kts | 1° |
| 2026-05-07 02:34 | 39.84259 | -104.66252 | 5410 ft | 17 kts | 0° |
| 2026-05-07 02:34 | 39.84392 | -104.66250 | 5412 ft | 21 kts | 1° |
| 2026-05-07 02:34 | 39.84548 | -104.66248 | 5411 ft | 24 kts | 0° |
| 2026-05-07 02:35 | 39.84726 | -104.66246 | 5402 ft | 25 kts | 0° |
| 2026-05-07 02:35 | 39.84914 | -104.66243 | 5401 ft | 28 kts | 0° |
| 2026-05-07 02:35 | 39.85108 | -104.66242 | 5398 ft | 25 kts | 1° |
| 2026-05-07 02:35 | 39.85299 | -104.66240 | 5390 ft | 29 kts | 0° |
| 2026-05-07 02:36 | 39.85505 | -104.66238 | 5397 ft | 31 kts | 0° |
| 2026-05-07 02:36 | 39.85716 | -104.66235 | 5390 ft | 31 kts | 1° |
| 2026-05-07 02:36 | 39.85910 | -104.66232 | 5388 ft | 25 kts | 1° |
| 2026-05-07 02:36 | 39.86096 | -104.66229 | 5385 ft | 28 kts | 0° |
| 2026-05-07 02:37 | 39.86304 | -104.66228 | 5382 ft | 28 kts | 0° |
| 2026-05-07 02:37 | 39.86441 | -104.66227 | 5378 ft | 13 kts | 360° |
| 2026-05-07 02:37 | 39.86501 | -104.66317 | 5376 ft | 17 kts | 273° |
| 2026-05-07 02:37 | 39.86499 | -104.66466 | 5375 ft | 14 kts | 254° |
| 2026-05-07 02:38 | 39.86419 | -104.66513 | 5376 ft | 13 kts | 199° |
| 2026-05-07 02:38 | 39.86407 | -104.66627 | 5377 ft | 15 kts | 271° |
| 2026-05-07 02:38 | 39.86408 | -104.66772 | 5377 ft | 17 kts | 270° |
| 2026-05-07 02:38 | 39.86409 | -104.66939 | 5377 ft | 19 kts | 270° |
| 2026-05-07 02:39 | 39.86412 | -104.67116 | 5377 ft | 21 kts | 270° |
| 2026-05-07 02:39 | 39.86412 | -104.67311 | 5376 ft | 21 kts | 270° |
| 2026-05-07 02:39 | 39.86415 | -104.67461 | 5377 ft | 12 kts | 272° |
| 2026-05-07 02:39 | 39.86393 | -104.67523 | 5376 ft | 8 kts | 194° |
| 2026-05-07 02:40 | 39.86358 | -104.67523 | 5375 ft | 3 kts | 179° |
| 2026-05-07 02:40 | 39.86356 | -104.67523 | 5374 ft | 0 kts | 179° |